createdAt,value
2023-05-11T00:01:49.311Z,16.82
2023-05-11T00:04:16.113Z,16.80
2023-05-11T00:06:43.039Z,16.78
2023-05-11T00:09:11.296Z,16.71
2023-05-11T00:11:38.248Z,16.74
2023-05-11T00:14:05.203Z,16.73
2023-05-11T00:16:32.167Z,16.64
2023-05-11T00:18:59.182Z,16.71
2023-05-11T00:21:26.167Z,16.71
2023-05-11T00:23:52.924Z,16.67
2023-05-11T00:26:19.647Z,16.65
2023-05-11T00:28:46.466Z,16.44
2023-05-11T00:31:13.314Z,16.64
2023-05-11T00:33:40.074Z,16.63
2023-05-11T00:36:08.243Z,16.52
2023-05-11T00:38:36.797Z,16.57
2023-05-11T00:41:03.533Z,16.58
2023-05-11T00:43:30.524Z,16.53
2023-05-11T00:45:57.374Z,16.46
2023-05-11T00:48:24.221Z,16.56
2023-05-11T00:50:51.115Z,16.30
2023-05-11T00:53:18.093Z,16.41
2023-05-11T00:55:44.949Z,16.47
2023-05-11T00:58:11.950Z,16.44
2023-05-11T01:00:39.108Z,16.41
2023-05-11T01:03:05.972Z,16.39
2023-05-11T01:05:42.244Z,16.14
2023-05-11T01:08:19.069Z,16.33
2023-05-11T01:10:49.668Z,16.30
2023-05-11T01:13:32.961Z,16.29
2023-05-11T01:15:59.831Z,16.16
2023-05-11T01:18:40.552Z,16.23
2023-05-11T01:21:07.474Z,16.18
2023-05-11T01:23:48.776Z,16.01
2023-05-11T01:26:37.844Z,16.07
2023-05-11T01:29:16.126Z,15.98
2023-05-11T01:31:43.370Z,15.85
2023-05-11T01:34:13.341Z,15.70
2023-05-11T01:36:44.771Z,15.90
2023-05-11T01:39:11.722Z,15.85
2023-05-11T01:41:39.538Z,15.80
2023-05-11T01:44:08.147Z,15.48
2023-05-11T01:46:35.174Z,15.52
2023-05-11T01:49:03.664Z,15.74
2023-05-11T01:51:34.391Z,15.44
2023-05-11T01:54:01.143Z,15.44
2023-05-11T01:56:28.100Z,15.59
2023-05-11T01:58:55.703Z,15.55
2023-05-11T02:01:22.826Z,15.69
2023-05-11T02:03:50.143Z,15.59
2023-05-11T02:06:18.264Z,15.57
2023-05-11T02:08:45.372Z,15.63
2023-05-11T02:11:12.084Z,15.53
2023-05-11T02:13:39.527Z,15.21
2023-05-11T02:16:06.822Z,15.58
2023-05-11T02:18:33.578Z,15.56
2023-05-11T02:21:00.650Z,15.53
2023-05-11T02:23:27.880Z,15.10
2023-05-11T02:25:54.656Z,15.54
2023-05-11T02:28:21.511Z,15.35
2023-05-11T02:30:54.298Z,15.48
2023-05-11T02:33:24.938Z,15.54
2023-05-11T02:35:52.014Z,15.52
2023-05-11T02:38:18.862Z,15.45
2023-05-11T02:40:50.566Z,15.50
2023-05-11T02:43:24.857Z,15.31
2023-05-11T02:45:54.539Z,15.34
2023-05-11T02:48:27.076Z,15.11
2023-05-11T02:50:55.391Z,14.67
2023-05-11T02:53:22.989Z,15.35
2023-05-11T02:55:50.968Z,15.38
2023-05-11T02:58:18.682Z,15.37
2023-05-11T03:00:45.672Z,15.34
2023-05-11T03:03:12.692Z,15.32
2023-05-11T03:05:40.074Z,15.27
2023-05-11T03:08:06.841Z,15.26
2023-05-11T03:10:34.488Z,15.25
2023-05-11T03:13:01.486Z,15.22
2023-05-11T03:15:28.258Z,15.20
2023-05-11T03:17:55.202Z,15.16
2023-05-11T03:20:22.171Z,14.58
2023-05-11T03:22:48.921Z,15.07
2023-05-11T03:25:16.108Z,15.04
2023-05-11T03:27:43.063Z,15.03
2023-05-11T03:30:10.339Z,14.74
2023-05-11T03:32:37.129Z,15.03
2023-05-11T03:35:04.171Z,14.63
2023-05-11T03:37:31.460Z,14.98
2023-05-11T03:39:59.439Z,14.92
2023-05-11T03:42:26.891Z,14.75
2023-05-11T03:44:56.069Z,14.96
2023-05-11T03:47:22.860Z,14.75
2023-05-11T03:49:50.151Z,14.96
2023-05-11T03:52:17.313Z,14.78
2023-05-11T03:54:44.034Z,14.92
2023-05-11T03:57:11.411Z,14.68
2023-05-11T03:59:41.315Z,14.83
2023-05-11T04:02:08.681Z,14.74
2023-05-11T04:04:35.794Z,14.76
2023-05-11T04:07:02.546Z,14.79
2023-05-11T04:09:29.352Z,14.53
2023-05-11T04:11:56.322Z,14.71
2023-05-11T04:14:23.173Z,14.34
2023-05-11T04:16:49.905Z,14.38
2023-05-11T04:19:17.071Z,14.23
2023-05-11T04:21:44.395Z,14.52
2023-05-11T04:24:11.130Z,14.55
2023-05-11T04:26:38.043Z,14.32
2023-05-11T04:29:05.182Z,13.87
2023-05-11T04:31:32.687Z,14.46
2023-05-11T04:33:59.683Z,14.46
2023-05-11T04:36:26.522Z,14.32
2023-05-11T04:38:53.794Z,14.36
2023-05-11T04:41:21.088Z,14.09
2023-05-11T04:43:47.851Z,14.20
2023-05-11T04:46:15.490Z,14.04
2023-05-11T04:48:42.523Z,14.18
2023-05-11T04:51:10.125Z,14.37
2023-05-11T04:53:36.869Z,14.34
2023-05-11T04:56:03.945Z,13.95
2023-05-11T04:58:31.226Z,14.28
2023-05-11T05:00:58.032Z,14.28
2023-05-11T05:03:25.159Z,14.26
2023-05-11T05:05:52.096Z,13.91
2023-05-11T05:08:18.920Z,14.15
2023-05-11T05:10:47.055Z,14.18
2023-05-11T05:13:14.349Z,14.12
2023-05-11T05:15:41.104Z,13.67
2023-05-11T05:18:08.162Z,14.09
2023-05-11T05:20:35.427Z,14.10
2023-05-11T05:23:02.564Z,13.88
2023-05-11T05:25:29.653Z,13.91
2023-05-11T05:27:56.392Z,14.10
2023-05-11T05:30:23.376Z,14.12
2023-05-11T05:32:51.030Z,14.14
2023-05-11T05:35:17.874Z,14.14
2023-05-11T05:37:44.674Z,14.16
2023-05-11T05:40:11.658Z,14.14
2023-05-11T05:42:39.067Z,14.16
2023-05-11T05:45:06.508Z,14.17
2023-05-11T05:47:33.569Z,14.13
2023-05-11T05:50:00.389Z,14.15
2023-05-11T05:52:27.271Z,13.92
2023-05-11T05:54:54.184Z,14.21
2023-05-11T05:57:21.160Z,14.18
2023-05-11T05:59:47.909Z,13.97
2023-05-11T06:02:14.913Z,14.33
2023-05-11T06:04:42.378Z,14.48
2023-05-11T06:07:09.313Z,14.51
2023-05-11T06:09:37.916Z,14.51
2023-05-11T06:12:06.344Z,14.63
2023-05-11T06:14:33.207Z,14.62
2023-05-11T06:17:00.169Z,14.68
2023-05-11T06:19:26.932Z,14.76
2023-05-11T06:21:53.937Z,14.90
2023-05-11T06:24:20.869Z,14.82
2023-05-11T06:26:47.855Z,15.26
2023-05-11T06:29:14.650Z,15.27
2023-05-11T06:31:41.766Z,15.41
2023-05-11T06:34:09.669Z,15.52
2023-05-11T06:36:36.437Z,15.74
2023-05-11T06:39:03.395Z,15.86
2023-05-11T06:41:30.198Z,15.98
2023-05-11T06:43:56.937Z,16.14
2023-05-11T06:46:23.963Z,16.17
2023-05-11T06:48:50.705Z,16.48
2023-05-11T06:51:17.619Z,16.64
2023-05-11T06:53:44.642Z,16.80
2023-05-11T06:56:11.636Z,17.00
2023-05-11T06:58:38.470Z,17.18
2023-05-11T07:01:09.907Z,17.33
2023-05-11T07:03:36.726Z,17.44
2023-05-11T07:06:03.716Z,17.56
2023-05-11T07:08:30.648Z,17.82
2023-05-11T07:10:57.393Z,17.71
2023-05-11T07:13:24.122Z,18.20
2023-05-11T07:15:51.183Z,18.39
2023-05-11T07:18:18.031Z,18.53
2023-05-11T07:20:46.980Z,18.64
2023-05-11T07:23:13.927Z,18.76
2023-05-11T07:25:40.842Z,18.91
2023-05-11T07:28:07.657Z,19.07
2023-05-11T07:30:34.550Z,19.18
2023-05-11T07:33:02.749Z,19.23
2023-05-11T07:35:29.745Z,19.24
2023-05-11T07:37:56.582Z,19.23
2023-05-11T07:40:23.373Z,19.31
2023-05-11T07:42:50.175Z,19.39
2023-05-11T07:45:17.037Z,19.49
2023-05-11T07:47:45.277Z,19.57
2023-05-11T07:50:12.859Z,19.05
2023-05-11T07:52:39.864Z,19.68
2023-05-11T07:55:06.971Z,19.57
2023-05-11T07:57:33.798Z,19.64
2023-05-11T08:00:00.970Z,19.91
2023-05-11T08:02:28.164Z,20.10
2023-05-11T08:04:55.056Z,20.31
2023-05-11T08:07:21.914Z,20.36
2023-05-11T08:09:48.788Z,20.55
2023-05-11T08:12:15.542Z,20.53
2023-05-11T08:14:43.465Z,20.80
2023-05-11T08:17:11.002Z,20.77
2023-05-11T08:19:38.038Z,20.74
2023-05-11T08:22:05.050Z,21.01
2023-05-11T08:24:31.885Z,20.87
2023-05-11T08:26:58.696Z,21.17
2023-05-11T08:29:27.637Z,21.20
2023-05-11T08:31:54.581Z,21.27
2023-05-11T08:34:22.521Z,21.07
2023-05-11T08:36:49.672Z,21.37
2023-05-11T08:39:24.856Z,21.38
2023-05-11T08:42:05.552Z,21.40
2023-05-11T08:44:33.809Z,21.35
2023-05-11T08:47:18.975Z,21.57
2023-05-11T08:49:47.819Z,21.63
2023-05-11T08:52:14.591Z,21.75
2023-05-11T08:54:41.328Z,22.10
2023-05-11T08:57:08.307Z,22.00
2023-05-11T08:59:35.118Z,22.44
2023-05-11T09:02:02.006Z,22.62
2023-05-11T09:04:28.863Z,22.76
2023-05-11T09:06:55.587Z,23.00
2023-05-11T09:09:23.154Z,23.18
2023-05-11T09:11:50.032Z,23.29
2023-05-11T09:14:16.771Z,23.37
2023-05-11T09:16:43.531Z,23.35
2023-05-11T09:19:14.228Z,23.36
2023-05-11T09:21:40.962Z,22.84
2023-05-11T09:24:07.718Z,23.44
2023-05-11T09:26:34.693Z,23.53
2023-05-11T09:29:02.985Z,23.58
2023-05-11T09:31:44.299Z,23.59
2023-05-11T09:34:18.158Z,23.70
2023-05-11T09:36:46.121Z,23.71
2023-05-11T09:39:15.899Z,23.60
2023-05-11T09:41:43.663Z,23.78
2023-05-11T09:44:15.359Z,23.86
2023-05-11T09:46:44.016Z,23.87
2023-05-11T09:49:11.591Z,23.85
2023-05-11T09:51:40.751Z,23.80
2023-05-11T09:54:17.894Z,23.81
2023-05-11T09:56:46.619Z,23.85
2023-05-11T09:59:15.822Z,23.96
2023-05-11T10:01:42.768Z,23.95
2023-05-11T10:04:22.206Z,24.23
2023-05-11T10:06:53.250Z,24.63
2023-05-11T10:09:24.513Z,24.90
2023-05-11T10:11:51.445Z,25.01
2023-05-11T10:14:18.320Z,25.34
2023-05-11T10:16:45.240Z,25.43
2023-05-11T10:19:13.110Z,25.67
2023-05-11T10:21:40.216Z,25.79
2023-05-11T10:24:07.845Z,25.69
2023-05-11T10:26:34.722Z,26.04
2023-05-11T10:29:01.604Z,25.96
2023-05-11T10:31:29.530Z,26.26
2023-05-11T10:33:57.435Z,26.12
2023-05-11T10:36:24.576Z,26.22
2023-05-11T10:38:51.586Z,26.13
2023-05-11T10:41:40.350Z,26.24
2023-05-11T10:44:07.440Z,26.20
2023-05-11T10:46:55.769Z,26.21
2023-05-11T10:49:44.149Z,26.40
2023-05-11T10:52:21.206Z,26.51
2023-05-11T10:54:56.856Z,26.67
2023-05-11T10:58:07.359Z,26.81
2023-05-11T11:00:56.052Z,26.97
2023-05-11T11:03:22.810Z,27.11
2023-05-11T11:05:49.734Z,27.14
2023-05-11T11:08:16.700Z,27.49
2023-05-11T11:10:46.871Z,27.75
2023-05-11T11:13:14.485Z,27.69
2023-05-11T11:15:56.567Z,27.78
2023-05-11T11:18:27.740Z,27.84
2023-05-11T11:20:55.616Z,27.94
2023-05-11T11:23:44.381Z,28.00
2023-05-11T11:26:11.730Z,27.94
2023-05-11T11:29:00.980Z,27.99
2023-05-11T11:31:28.312Z,28.06
2023-05-11T11:33:59.431Z,27.92
2023-05-11T11:37:02.037Z,28.16
2023-05-11T11:39:30.555Z,28.04
2023-05-11T11:42:04.861Z,27.85
2023-05-11T11:44:31.965Z,28.07
2023-05-11T11:47:22.277Z,28.54
2023-05-11T11:49:53.650Z,28.67
2023-05-11T11:52:30.188Z,28.80
2023-05-11T11:55:00.840Z,28.90
2023-05-11T11:57:33.404Z,28.92
2023-05-11T12:00:00.775Z,29.04
2023-05-11T12:02:29.260Z,29.18
2023-05-11T12:05:13.206Z,29.40
2023-05-11T12:07:47.464Z,29.66
2023-05-11T12:10:14.883Z,29.75
2023-05-11T12:12:45.546Z,29.87
2023-05-11T12:15:28.862Z,29.85
2023-05-11T12:17:56.219Z,30.30
2023-05-11T12:20:23.417Z,30.36
2023-05-11T12:22:50.597Z,30.58
2023-05-11T12:25:18.474Z,31.03
2023-05-11T12:27:57.781Z,31.23
2023-05-11T12:30:29.650Z,31.63
2023-05-11T12:32:57.519Z,31.71
2023-05-11T12:35:27.914Z,32.09
2023-05-11T12:37:54.786Z,32.41
2023-05-11T12:40:21.546Z,32.64
2023-05-11T12:42:55.212Z,32.76
2023-05-11T12:45:23.532Z,32.93
2023-05-11T12:47:51.291Z,33.13
2023-05-11T12:50:18.459Z,33.35
2023-05-11T12:52:45.348Z,33.34
2023-05-11T12:55:12.375Z,33.44
2023-05-11T12:57:40.157Z,33.79
2023-05-11T13:00:08.111Z,32.99
2023-05-11T13:02:35.186Z,31.72
2023-05-11T13:05:11.728Z,30.43
2023-05-11T13:07:38.546Z,29.33
2023-05-11T13:10:05.920Z,28.67
2023-05-11T13:12:34.480Z,27.88
2023-05-11T13:15:20.674Z,27.14
2023-05-11T13:17:47.904Z,26.48
2023-05-11T13:20:29.811Z,25.91
2023-05-11T13:23:17.103Z,25.32
2023-05-11T13:25:46.536Z,24.90
2023-05-11T13:28:16.810Z,24.61
2023-05-11T13:30:43.761Z,24.12
2023-05-11T13:33:10.705Z,24.13
2023-05-11T13:35:43.476Z,23.87
2023-05-11T13:38:10.875Z,23.60
2023-05-11T13:40:37.732Z,23.66
2023-05-11T13:43:04.854Z,23.22
2023-05-11T13:45:32.394Z,23.44
2023-05-11T13:47:59.491Z,23.41
2023-05-11T13:50:26.874Z,23.23
2023-05-11T13:52:53.777Z,23.29
2023-05-11T13:55:21.252Z,23.20
2023-05-11T13:57:48.580Z,22.87
2023-05-11T14:00:16.074Z,22.90
2023-05-11T14:02:44.199Z,22.87
2023-05-11T14:05:11.186Z,22.81
2023-05-11T14:07:46.988Z,22.88
2023-05-11T14:10:18.865Z,22.81
2023-05-11T14:12:46.415Z,22.64
2023-05-11T14:15:13.583Z,22.54
2023-05-11T14:17:43.435Z,22.04
2023-05-11T14:20:13.829Z,22.76
2023-05-11T14:22:41.609Z,22.68
2023-05-11T14:25:09.263Z,22.58
2023-05-11T14:27:36.347Z,22.54
2023-05-11T14:30:03.219Z,22.31
2023-05-11T14:32:30.133Z,22.57
2023-05-11T14:34:56.872Z,22.55
2023-05-11T14:37:23.620Z,22.32
2023-05-11T14:39:50.744Z,22.56
2023-05-11T14:42:18.512Z,22.37
2023-05-11T14:44:46.388Z,22.47
2023-05-11T14:47:13.560Z,22.44
2023-05-11T14:49:40.300Z,22.53
2023-05-11T14:52:07.155Z,22.41
2023-05-11T14:54:35.188Z,22.50
2023-05-11T14:57:01.955Z,22.50
2023-05-11T14:59:28.766Z,22.33
2023-05-11T15:01:55.594Z,22.40
2023-05-11T15:04:22.564Z,22.28
2023-05-11T15:06:49.573Z,22.19
2023-05-11T15:09:16.609Z,22.43
2023-05-11T15:11:43.495Z,22.37
2023-05-11T15:14:10.735Z,22.31
2023-05-11T15:16:38.010Z,22.04
2023-05-11T15:19:05.618Z,22.27
2023-05-11T15:21:32.702Z,22.28
2023-05-11T15:23:59.808Z,22.21
2023-05-11T15:26:27.057Z,22.08
2023-05-11T15:28:53.893Z,21.73
2023-05-11T15:31:21.392Z,21.86
2023-05-11T15:33:48.330Z,22.11
2023-05-11T15:36:15.380Z,21.66
2023-05-11T15:38:42.885Z,21.87
2023-05-11T15:41:09.734Z,21.94
2023-05-11T15:43:36.581Z,21.84
2023-05-11T15:46:07.741Z,21.59
2023-05-11T15:48:34.540Z,21.87
2023-05-11T15:51:01.423Z,21.53
2023-05-11T15:53:28.594Z,21.49
2023-05-11T15:55:55.930Z,21.54
2023-05-11T15:58:22.756Z,21.46
2023-05-11T16:00:49.693Z,21.68
2023-05-11T16:03:16.891Z,21.67
2023-05-11T16:05:44.832Z,21.67
2023-05-11T16:08:12.522Z,21.32
2023-05-11T16:10:39.297Z,21.57
2023-05-11T16:15:33.211Z,21.55
2023-05-11T16:18:03.075Z,21.55
2023-05-11T16:20:31.623Z,21.61
2023-05-11T16:22:58.571Z,21.47
2023-05-11T16:25:25.366Z,21.36
2023-05-11T16:27:52.115Z,21.30
2023-05-11T16:30:24.846Z,21.51
2023-05-11T16:32:52.816Z,21.50
2023-05-11T16:35:20.001Z,21.35
2023-05-11T16:37:47.980Z,21.49
2023-05-11T16:40:18.474Z,21.46
2023-05-11T16:42:47.144Z,21.43
2023-05-11T16:45:15.155Z,21.43
2023-05-11T16:47:42.649Z,21.43
2023-05-11T16:50:14.177Z,20.83
2023-05-11T16:52:41.474Z,21.46
2023-05-11T16:55:08.750Z,21.33
2023-05-11T16:57:36.012Z,21.24
2023-05-11T17:00:03.056Z,21.45
2023-05-11T17:02:29.965Z,20.56
2023-05-11T17:04:56.962Z,21.38
2023-05-11T17:07:25.277Z,21.28
2023-05-11T17:09:56.450Z,21.35
2023-05-11T17:12:26.193Z,21.37
2023-05-11T17:14:52.919Z,21.37
2023-05-11T17:17:19.931Z,21.16
2023-05-11T17:19:46.867Z,21.16
2023-05-11T17:22:13.625Z,21.26
2023-05-11T17:24:41.138Z,21.41
2023-05-11T17:27:08.202Z,21.38
2023-05-11T17:29:35.007Z,21.45
2023-05-11T17:32:02.008Z,21.45
2023-05-11T17:34:29.939Z,21.25
2023-05-11T17:36:57.188Z,21.32
2023-05-11T17:39:24.010Z,21.31
2023-05-11T17:41:51.010Z,21.25
2023-05-11T17:44:17.797Z,21.21
2023-05-11T17:46:45.002Z,21.13
2023-05-11T17:49:11.832Z,21.13
2023-05-11T17:51:38.621Z,21.11
2023-05-11T17:54:05.470Z,21.09
2023-05-11T17:56:32.390Z,20.77
2023-05-11T17:58:59.118Z,21.06
2023-05-11T18:01:27.648Z,21.01
2023-05-11T18:03:54.803Z,20.73
2023-05-11T18:06:21.819Z,20.92
2023-05-11T18:08:48.807Z,20.68
2023-05-11T18:11:15.688Z,20.89
2023-05-11T18:13:42.408Z,20.74
2023-05-11T18:16:09.261Z,20.84
2023-05-11T18:18:37.074Z,20.85
2023-05-11T18:21:07.510Z,20.72
2023-05-11T18:23:34.550Z,20.66
2023-05-11T18:26:01.512Z,20.75
2023-05-11T18:28:28.344Z,20.48
2023-05-11T18:30:55.520Z,20.57
2023-05-11T18:33:22.675Z,20.42
2023-05-11T18:35:52.617Z,19.91
2023-05-11T18:38:19.492Z,20.24
2023-05-11T18:40:46.592Z,20.31
2023-05-11T18:43:14.128Z,20.28
2023-05-11T18:45:41.331Z,20.38
2023-05-11T18:48:08.403Z,20.20
2023-05-11T18:50:35.931Z,20.35
2023-05-11T18:53:02.706Z,20.39
2023-05-11T18:55:33.201Z,20.35
2023-05-11T18:58:05.235Z,20.34
2023-05-11T19:00:37.177Z,20.33
2023-05-11T19:03:04.317Z,20.14
2023-05-11T19:05:31.229Z,20.17
2023-05-11T19:07:58.064Z,20.26
2023-05-11T19:10:24.928Z,20.24
2023-05-11T19:12:51.739Z,20.19
2023-05-11T19:15:18.690Z,20.00
2023-05-11T19:17:45.725Z,20.06
2023-05-11T19:20:12.843Z,19.96
2023-05-11T19:22:39.749Z,19.93
2023-05-11T19:25:07.520Z,19.85
2023-05-11T19:27:34.579Z,19.76
2023-05-11T19:30:01.854Z,19.59
2023-05-11T19:32:28.774Z,19.61
2023-05-11T19:34:55.726Z,19.58
2023-05-11T19:37:22.646Z,19.55
2023-05-11T19:39:49.509Z,19.56
2023-05-11T19:42:16.911Z,19.32
2023-05-11T19:44:49.217Z,19.45
2023-05-11T19:47:17.804Z,19.39
2023-05-11T19:49:44.767Z,19.33
2023-05-11T19:52:11.639Z,19.29
2023-05-11T19:54:38.550Z,19.13
2023-05-11T19:57:05.600Z,19.01
2023-05-11T19:59:35.112Z,19.16
2023-05-11T20:02:02.429Z,19.13
2023-05-11T20:04:29.564Z,18.84
2023-05-11T20:06:57.427Z,18.69
2023-05-11T20:09:27.832Z,18.87
2023-05-11T20:11:54.677Z,18.73
2023-05-11T20:14:21.583Z,18.05
2023-05-11T20:16:48.451Z,18.94
2023-05-11T20:19:15.397Z,18.42
2023-05-11T20:21:42.634Z,18.59
2023-05-11T20:24:09.646Z,18.84
2023-05-11T20:26:39.186Z,18.68
2023-05-11T20:29:07.938Z,18.80
2023-05-11T20:31:34.964Z,18.22
2023-05-11T20:36:31.510Z,18.65
2023-05-11T20:38:59.101Z,18.53
2023-05-11T20:41:26.073Z,18.62
2023-05-11T20:43:53.052Z,18.57
2023-05-11T20:46:20.893Z,18.37
2023-05-11T20:48:51.557Z,18.33
2023-05-11T20:51:23.359Z,18.52
2023-05-11T20:53:50.798Z,18.48
2023-05-11T20:56:17.576Z,18.39
2023-05-11T20:58:47.813Z,17.72
2023-05-11T21:01:14.797Z,18.31
2023-05-11T21:03:41.722Z,18.31
2023-05-11T21:06:09.105Z,18.21
2023-05-11T21:08:36.206Z,18.30
2023-05-11T21:11:03.041Z,18.08
2023-05-11T21:13:29.950Z,18.13
2023-05-11T21:15:56.652Z,18.27
2023-05-11T21:18:23.574Z,18.26
2023-05-11T21:20:50.482Z,18.19
2023-05-11T21:23:17.856Z,18.27
2023-05-11T21:25:44.586Z,18.29
2023-05-11T21:28:11.532Z,18.30
2023-05-11T21:30:38.310Z,18.12
2023-05-11T21:33:05.088Z,18.21
2023-05-11T21:35:31.976Z,18.31
2023-05-11T21:37:58.825Z,18.12
2023-05-11T21:40:26.043Z,18.07
2023-05-11T21:42:52.951Z,17.97
2023-05-11T21:45:20.117Z,18.25
2023-05-11T21:47:47.201Z,18.23
2023-05-11T21:50:14.076Z,18.21
2023-05-11T21:52:40.834Z,18.20
2023-05-11T21:55:08.107Z,17.63
2023-05-11T21:57:34.933Z,18.17
2023-05-11T22:00:02.029Z,18.19
2023-05-11T22:02:28.991Z,17.98
2023-05-11T22:04:56.029Z,18.14
2023-05-11T22:07:23.354Z,17.91
2023-05-11T22:09:50.159Z,18.08
2023-05-11T22:12:17.154Z,17.97
2023-05-11T22:14:43.978Z,18.07
2023-05-11T22:17:11.144Z,18.02
2023-05-11T22:19:38.101Z,17.79
2023-05-11T22:22:05.097Z,17.78
2023-05-11T22:24:31.956Z,18.05
2023-05-11T22:26:59.638Z,18.04
2023-05-11T22:29:26.367Z,17.63
2023-05-11T22:31:53.135Z,18.01
2023-05-11T22:34:21.318Z,17.88
2023-05-11T22:36:48.116Z,18.00
2023-05-11T22:39:14.881Z,18.02
2023-05-11T22:41:41.830Z,18.00
2023-05-11T22:44:08.763Z,17.76
2023-05-11T22:46:35.872Z,17.82
2023-05-11T22:49:02.769Z,17.94
2023-05-11T22:51:29.604Z,17.82
2023-05-11T22:53:56.345Z,17.91
2023-05-11T22:56:23.181Z,17.91
2023-05-11T22:58:50.176Z,17.89
2023-05-11T23:01:17.091Z,17.69
2023-05-11T23:03:44.024Z,17.74
2023-05-11T23:06:10.965Z,17.58
2023-05-11T23:08:37.715Z,17.63
2023-05-11T23:11:04.824Z,17.32
2023-05-11T23:13:31.556Z,17.54
2023-05-11T23:15:58.472Z,17.48
2023-05-11T23:18:25.515Z,17.43
2023-05-11T23:20:58.593Z,17.38
2023-05-11T23:23:25.852Z,17.22
2023-05-11T23:25:52.937Z,16.66
2023-05-11T23:28:20.090Z,17.03
2023-05-11T23:30:47.564Z,17.25
2023-05-11T23:33:14.856Z,17.24
2023-05-11T23:35:41.713Z,17.06
2023-05-11T23:38:08.622Z,16.95
2023-05-11T23:40:35.773Z,17.21
2023-05-11T23:43:02.556Z,17.09
2023-05-11T23:45:29.328Z,17.17
2023-05-11T23:47:56.581Z,17.15
2023-05-11T23:50:23.586Z,16.91
2023-05-11T23:52:50.471Z,17.08
2023-05-11T23:55:17.464Z,16.95
2023-05-11T23:57:45.094Z,16.97
